createdAt,value
2022-08-17T00:00:05.467Z,84.55
2022-08-17T00:02:32.612Z,84.45
2022-08-17T00:05:05.706Z,85.34
2022-08-17T00:07:32.393Z,86.56
2022-08-17T00:09:59.080Z,85.83
2022-08-17T00:12:40.834Z,85.97
2022-08-17T00:15:13.636Z,85.85
2022-08-17T00:17:42.482Z,86.22
2022-08-17T00:20:12.226Z,86.28
2022-08-17T00:22:39.156Z,87.97
2022-08-17T00:25:13.015Z,92.06
2022-08-17T00:27:40.492Z,90.97
2022-08-17T00:30:11.881Z,89.05
2022-08-17T00:33:11.941Z,88.50
2022-08-17T00:35:34.420Z,87.45
2022-08-17T00:38:01.158Z,89.20
2022-08-17T00:40:39.885Z,89.12
2022-08-17T00:43:33.547Z,88.48
2022-08-17T00:46:15.883Z,88.40
2022-08-17T00:48:44.153Z,87.68
2022-08-17T00:51:26.451Z,87.40
2022-08-17T00:54:22.178Z,87.36
2022-08-17T00:57:15.099Z,87.27
2022-08-17T00:59:51.126Z,86.32
2022-08-17T01:02:42.253Z,86.74
2022-08-17T01:05:23.856Z,87.00
2022-08-17T01:07:53.814Z,87.93
2022-08-17T01:10:58.556Z,88.64
2022-08-17T01:13:19.108Z,88.22
2022-08-17T01:16:31.968Z,87.91
2022-08-17T01:19:03.318Z,87.38
2022-08-17T01:21:56.657Z,87.24
2022-08-17T01:24:24.303Z,89.01
2022-08-17T01:26:51.629Z,89.67
2022-08-17T01:29:23.007Z,91.08
2022-08-17T01:31:56.701Z,90.29
2022-08-17T01:34:25.008Z,91.20
2022-08-17T01:37:05.129Z,90.35
2022-08-17T01:39:54.139Z,89.76
2022-08-17T01:42:31.942Z,91.19
2022-08-17T01:45:06.890Z,90.89
2022-08-17T01:47:36.081Z,89.99
2022-08-17T01:50:11.398Z,90.25
2022-08-17T01:52:39.499Z,90.71
2022-08-17T01:55:08.192Z,90.37
2022-08-17T01:57:35.540Z,92.41
2022-08-17T02:00:10.277Z,95.44
2022-08-17T02:02:37.314Z,95.05
2022-08-17T02:05:07.238Z,93.29
2022-08-17T02:07:59.489Z,92.16
2022-08-17T02:10:23.917Z,90.46
2022-08-17T02:13:04.829Z,89.90
2022-08-17T02:15:32.368Z,90.08
2022-08-17T02:17:59.247Z,90.68
2022-08-17T02:20:42.045Z,89.95
2022-08-17T02:23:13.061Z,90.43
2022-08-17T02:25:44.206Z,91.35
2022-08-17T02:28:11.438Z,91.91
2022-08-17T02:31:00.194Z,92.32
2022-08-17T02:33:25.313Z,92.61
2022-08-17T02:36:12.720Z,93.22
2022-08-17T02:38:42.473Z,92.29
2022-08-17T02:41:09.785Z,91.88
2022-08-17T02:43:36.738Z,92.25
2022-08-17T02:46:03.437Z,93.41
2022-08-17T02:48:32.035Z,93.06
2022-08-17T02:51:00.756Z,92.54
2022-08-17T02:53:33.674Z,91.92
2022-08-17T02:56:04.201Z,90.95
2022-08-17T02:58:35.209Z,90.74
2022-08-17T03:01:06.262Z,90.23
2022-08-17T03:03:33.420Z,89.95
2022-08-17T03:06:01.178Z,90.04
2022-08-17T03:08:28.434Z,90.65
2022-08-17T03:10:55.676Z,91.03
2022-08-17T03:13:23.198Z,90.58
2022-08-17T03:15:50.664Z,90.76
2022-08-17T03:18:24.486Z,91.01
2022-08-17T03:20:56.405Z,90.96
2022-08-17T03:23:25.523Z,90.97
2022-08-17T03:25:53.959Z,90.59
2022-08-17T03:28:23.118Z,90.21
2022-08-17T03:30:51.461Z,90.74
2022-08-17T03:33:19.548Z,91.16
2022-08-17T03:35:47.291Z,91.48
2022-08-17T03:38:17.380Z,90.92
2022-08-17T03:40:57.442Z,90.67
2022-08-17T03:43:26.226Z,90.37
2022-08-17T03:46:28.636Z,90.77
2022-08-17T03:49:17.510Z,90.54
2022-08-17T03:52:03.175Z,90.89
2022-08-17T03:54:48.869Z,91.77
2022-08-17T03:57:16.655Z,91.23
2022-08-17T03:59:45.032Z,91.03
2022-08-17T04:02:34.089Z,90.93
2022-08-17T04:05:01.755Z,90.69
2022-08-17T04:07:31.298Z,90.88
2022-08-17T04:09:59.560Z,91.51
2022-08-17T04:12:31.268Z,91.39
2022-08-17T04:14:59.121Z,91.05
2022-08-17T04:17:29.449Z,91.10
2022-08-17T04:19:57.620Z,91.33
2022-08-17T04:22:32.790Z,91.67
2022-08-17T04:25:21.234Z,92.22
2022-08-17T04:27:48.805Z,91.44
2022-08-17T04:30:16.263Z,91.61
2022-08-17T04:33:05.011Z,91.47
2022-08-17T04:35:40.078Z,91.31
2022-08-17T04:38:10.462Z,91.90
2022-08-17T04:40:56.680Z,92.40
2022-08-17T04:43:26.605Z,92.38
2022-08-17T04:46:06.041Z,93.98
2022-08-17T04:48:37.827Z,93.91
2022-08-17T04:51:10.009Z,93.23
2022-08-17T04:53:39.122Z,92.95
2022-08-17T04:56:06.854Z,92.40
2022-08-17T04:58:33.926Z,92.22
2022-08-17T05:01:01.571Z,92.73
2022-08-17T05:03:29.243Z,92.63
2022-08-17T05:05:55.949Z,92.64
2022-08-17T05:08:22.754Z,92.10
2022-08-17T05:10:50.218Z,92.17
2022-08-17T05:13:21.604Z,92.67
2022-08-17T05:15:53.093Z,92.65
2022-08-17T05:18:19.816Z,92.16
2022-08-17T05:20:46.696Z,92.19
2022-08-17T05:23:18.916Z,92.10
2022-08-17T05:25:54.595Z,91.74
2022-08-17T05:28:26.544Z,91.90
2022-08-17T05:30:59.329Z,94.30
2022-08-17T05:33:31.757Z,94.63
2022-08-17T05:36:00.203Z,93.56
2022-08-17T05:38:29.623Z,95.74
2022-08-17T05:41:00.373Z,97.49
2022-08-17T05:43:31.970Z,98.21
2022-08-17T05:46:27.373Z,98.41
2022-08-17T05:49:03.157Z,98.24
2022-08-17T05:52:04.071Z,96.48
2022-08-17T05:55:10.238Z,95.07
2022-08-17T05:57:56.292Z,93.80
2022-08-17T06:01:04.130Z,88.90
2022-08-17T06:04:21.682Z,82.60
2022-08-17T06:07:10.993Z,83.34
2022-08-17T06:10:10.114Z,84.86
2022-08-17T06:13:08.408Z,87.48
2022-08-17T06:16:33.776Z,85.31
2022-08-17T06:19:31.671Z,83.40
2022-08-17T06:22:00.317Z,84.29
2022-08-17T06:24:35.678Z,84.63
2022-08-17T06:27:13.009Z,84.04
2022-08-17T06:30:13.217Z,83.27
2022-08-17T06:32:45.101Z,80.08
2022-08-17T06:35:18.392Z,75.82
2022-08-17T06:38:37.166Z,72.28
2022-08-17T06:41:38.115Z,71.50
2022-08-17T06:44:43.198Z,70.95
2022-08-17T06:48:06.791Z,69.50
2022-08-17T06:50:46.531Z,65.45
2022-08-17T06:53:26.722Z,64.56
2022-08-17T06:56:22.064Z,64.12
2022-08-17T06:58:49.996Z,61.57
2022-08-17T07:01:31.781Z,62.04
2022-08-17T07:04:15.438Z,61.32
2022-08-17T07:07:24.656Z,63.14
2022-08-17T07:09:56.517Z,62.05
2022-08-17T07:12:34.221Z,60.59
2022-08-17T07:15:22.865Z,58.91
2022-08-17T07:17:49.854Z,58.65
2022-08-17T07:20:22.718Z,57.29
2022-08-17T07:23:03.177Z,56.61
2022-08-17T07:25:30.728Z,56.42
2022-08-17T07:28:06.107Z,57.20
2022-08-17T07:30:49.217Z,53.59
2022-08-17T07:33:26.062Z,52.49
2022-08-17T07:35:53.632Z,52.43
2022-08-17T07:38:28.352Z,51.65
2022-08-17T07:41:01.181Z,50.57
2022-08-17T07:43:45.028Z,49.21
2022-08-17T07:46:30.344Z,49.28
2022-08-17T07:49:09.117Z,49.65
2022-08-17T07:51:57.264Z,49.78
2022-08-17T07:54:37.629Z,46.61
2022-08-17T07:57:13.225Z,48.38
2022-08-17T07:59:44.175Z,50.17
2022-08-17T08:02:17.175Z,50.08
2022-08-17T08:05:01.899Z,47.12
2022-08-17T08:07:50.638Z,47.70
2022-08-17T08:10:38.387Z,46.57
2022-08-17T08:13:14.483Z,47.18
2022-08-17T08:15:54.796Z,47.13
2022-08-17T08:18:54.075Z,47.22
2022-08-17T08:21:42.206Z,46.20
2022-08-17T08:24:40.689Z,44.77
2022-08-17T08:27:50.325Z,43.89
2022-08-17T08:30:22.084Z,43.91
2022-08-17T08:33:29.487Z,44.14
2022-08-17T08:36:58.120Z,45.03
2022-08-17T08:39:30.802Z,43.69
2022-08-17T08:42:49.850Z,44.03
2022-08-17T08:45:43.981Z,42.38
2022-08-17T08:49:12.180Z,42.05
2022-08-17T08:51:56.216Z,42.36
2022-08-17T08:54:53.757Z,40.86
2022-08-17T08:57:34.374Z,40.40
2022-08-17T09:00:20.999Z,42.44
2022-08-17T09:03:51.949Z,41.17
2022-08-17T09:06:39.072Z,40.98
2022-08-17T09:09:19.078Z,38.84
2022-08-17T09:12:06.618Z,38.85
2022-08-17T09:14:47.001Z,39.56
2022-08-17T09:17:25.500Z,37.62
2022-08-17T09:20:05.762Z,37.91
2022-08-17T09:22:52.777Z,37.73
2022-08-17T09:25:28.398Z,39.17
2022-08-17T09:28:20.460Z,39.01
2022-08-17T09:30:55.286Z,37.98
2022-08-17T09:33:27.621Z,38.63
2022-08-17T09:36:08.467Z,38.64
2022-08-17T09:38:43.587Z,37.00
2022-08-17T09:41:50.433Z,37.08
2022-08-17T09:44:46.045Z,36.31
2022-08-17T09:47:24.431Z,36.19
2022-08-17T09:50:11.524Z,37.85
2022-08-17T09:52:38.257Z,36.94
2022-08-17T09:55:06.190Z,37.98
2022-08-17T09:58:12.014Z,37.87
2022-08-17T10:00:53.518Z,36.32
2022-08-17T10:03:51.786Z,34.18
2022-08-17T10:06:52.286Z,35.32
2022-08-17T10:09:53.138Z,33.63
2022-08-17T10:12:38.735Z,34.85
2022-08-17T10:15:42.722Z,35.05
2022-08-17T10:18:31.867Z,35.75
2022-08-17T10:21:38.417Z,35.22
2022-08-17T10:25:23.403Z,35.30
2022-08-17T10:28:05.435Z,34.69
2022-08-17T10:30:41.620Z,35.36
2022-08-17T10:33:24.835Z,34.95
2022-08-17T10:36:14.941Z,34.25
2022-08-17T10:38:59.773Z,33.86
2022-08-17T10:41:41.524Z,33.53
2022-08-17T10:44:56.285Z,33.97
2022-08-17T10:47:27.009Z,34.47
2022-08-17T10:49:56.014Z,34.04
2022-08-17T10:52:24.064Z,36.16
2022-08-17T10:54:51.807Z,35.27
2022-08-17T10:57:33.855Z,34.20
2022-08-17T11:00:15.638Z,34.99
2022-08-17T11:02:51.165Z,37.89
2022-08-17T11:05:54.033Z,35.76
2022-08-17T11:08:50.701Z,36.24
2022-08-17T11:12:10.699Z,37.61
2022-08-17T11:14:53.671Z,38.00
2022-08-17T11:18:15.419Z,35.92
2022-08-17T11:21:39.156Z,37.12
2022-08-17T11:24:30.581Z,36.06
2022-08-17T11:27:36.023Z,35.65
2022-08-17T11:30:34.746Z,34.94
2022-08-17T11:33:38.243Z,35.33
2022-08-17T11:36:23.520Z,35.33
2022-08-17T11:39:33.416Z,33.95
2022-08-17T11:42:44.355Z,34.14
2022-08-17T11:45:46.425Z,33.97
2022-08-17T11:49:06.513Z,33.73
2022-08-17T11:52:13.858Z,35.27
2022-08-17T11:54:48.024Z,36.19
2022-08-17T11:57:26.998Z,36.06
2022-08-17T12:00:11.599Z,34.73
2022-08-17T12:02:48.753Z,35.62
2022-08-17T12:05:19.431Z,35.12
2022-08-17T12:07:55.970Z,35.39
2022-08-17T12:10:32.114Z,35.57
2022-08-17T12:13:11.497Z,33.84
2022-08-17T12:15:48.795Z,33.07
2022-08-17T12:18:29.217Z,34.57
2022-08-17T12:21:24.370Z,34.73
2022-08-17T12:24:26.014Z,34.48
2022-08-17T12:27:04.353Z,35.39
2022-08-17T12:29:35.403Z,36.29
2022-08-17T12:32:07.361Z,37.52
2022-08-17T12:34:42.309Z,36.92
2022-08-17T12:37:18.510Z,36.33
2022-08-17T12:39:58.645Z,38.07
2022-08-17T12:42:33.091Z,36.49
2022-08-17T12:45:00.113Z,39.64
2022-08-17T12:47:30.053Z,39.05
2022-08-17T12:50:28.667Z,35.12
2022-08-17T12:53:01.657Z,35.90
2022-08-17T12:55:36.743Z,37.20
2022-08-17T12:58:05.006Z,38.19
2022-08-17T13:00:38.210Z,34.96
2022-08-17T13:03:19.301Z,34.75
2022-08-17T13:05:52.112Z,34.35
2022-08-17T13:08:28.163Z,34.56
2022-08-17T13:10:58.112Z,34.10
2022-08-17T13:13:41.360Z,34.77
2022-08-17T13:16:17.687Z,34.51
2022-08-17T13:19:12.766Z,35.03
2022-08-17T13:21:48.102Z,36.00
2022-08-17T13:24:37.922Z,33.87
2022-08-17T13:27:10.106Z,33.97
2022-08-17T13:29:51.532Z,33.16
2022-08-17T13:32:43.985Z,36.23
2022-08-17T13:35:39.954Z,35.86
2022-08-17T13:38:12.609Z,34.89
2022-08-17T13:40:53.143Z,37.77
2022-08-17T13:43:42.783Z,38.35
2022-08-17T13:46:26.574Z,36.69
2022-08-17T13:49:09.759Z,33.10
2022-08-17T13:51:46.170Z,33.59
2022-08-17T13:54:35.314Z,34.62
2022-08-17T13:57:23.255Z,34.58
2022-08-17T14:00:17.481Z,37.14
2022-08-17T14:02:44.507Z,37.54
2022-08-17T14:05:11.331Z,36.83
2022-08-17T14:07:40.727Z,39.32
2022-08-17T14:10:18.083Z,36.11
2022-08-17T14:12:46.070Z,34.94
2022-08-17T14:15:17.836Z,34.28
2022-08-17T14:17:44.578Z,34.73
2022-08-17T14:20:13.423Z,37.39
2022-08-17T14:22:45.643Z,34.90
2022-08-17T14:25:18.640Z,34.80
2022-08-17T14:27:53.028Z,33.41
2022-08-17T14:30:25.120Z,36.95
2022-08-17T14:32:53.555Z,34.39
2022-08-17T14:35:24.029Z,36.27
2022-08-17T14:37:52.847Z,35.44
2022-08-17T14:40:24.928Z,33.64
2022-08-17T14:42:55.139Z,32.31
2022-08-17T14:45:30.389Z,34.60
2022-08-17T14:48:07.584Z,34.86
2022-08-17T14:50:42.297Z,36.22
2022-08-17T14:53:13.566Z,34.61
2022-08-17T14:55:40.799Z,35.78
2022-08-17T14:58:09.503Z,38.68
2022-08-17T15:00:37.856Z,37.74
2022-08-17T15:03:05.737Z,39.65
2022-08-17T15:05:37.153Z,38.53
2022-08-17T15:08:05.726Z,37.43
2022-08-17T15:10:34.096Z,36.07
2022-08-17T15:13:01.155Z,38.28
2022-08-17T15:15:29.588Z,40.82
2022-08-17T15:17:57.231Z,37.86
2022-08-17T15:20:29.057Z,36.01
2022-08-17T15:22:58.810Z,32.77
2022-08-17T15:25:29.295Z,33.14
2022-08-17T15:27:56.698Z,36.83
2022-08-17T15:30:26.026Z,38.76
2022-08-17T15:32:55.198Z,33.39
2022-08-17T15:35:29.002Z,33.93
2022-08-17T15:38:09.898Z,32.67
2022-08-17T15:40:50.399Z,33.48
2022-08-17T15:43:32.645Z,31.91
2022-08-17T15:46:14.676Z,32.86
2022-08-17T15:48:44.791Z,32.19
2022-08-17T15:51:20.534Z,34.37
2022-08-17T15:53:55.659Z,34.62
2022-08-17T15:56:25.238Z,34.29
2022-08-17T15:58:53.019Z,33.20
2022-08-17T16:02:14.243Z,36.29
2022-08-17T16:04:30.213Z,39.68
2022-08-17T16:06:59.329Z,40.60
2022-08-17T16:09:26.409Z,36.10
2022-08-17T16:11:55.346Z,36.16
2022-08-17T16:14:24.298Z,36.21
2022-08-17T16:16:51.320Z,35.28
2022-08-17T16:19:17.999Z,34.81
2022-08-17T16:21:44.727Z,34.70
2022-08-17T16:24:13.251Z,35.66
2022-08-17T16:26:42.772Z,35.24
2022-08-17T16:29:09.592Z,35.85
2022-08-17T16:31:37.842Z,36.55
2022-08-17T16:34:17.284Z,37.30
2022-08-17T16:36:55.199Z,39.05
2022-08-17T16:39:26.825Z,40.91
2022-08-17T16:41:53.768Z,41.06
2022-08-17T16:44:21.971Z,42.40
2022-08-17T16:46:50.347Z,43.66
2022-08-17T16:49:35.969Z,44.70
2022-08-17T16:52:10.442Z,43.35
2022-08-17T16:54:43.346Z,46.00
2022-08-17T16:57:13.111Z,46.76
2022-08-17T16:59:44.958Z,48.38
2022-08-17T17:02:16.047Z,48.80
2022-08-17T17:05:02.964Z,49.10
2022-08-17T17:08:12.870Z,51.15
2022-08-17T17:10:55.730Z,49.23
2022-08-17T17:13:43.851Z,43.50
2022-08-17T17:16:21.517Z,41.05
2022-08-17T17:19:09.031Z,39.93
2022-08-17T17:21:58.694Z,41.00
2022-08-17T17:24:39.663Z,42.07
2022-08-17T17:27:42.556Z,43.32
2022-08-17T17:30:29.929Z,43.42
2022-08-17T17:33:09.139Z,44.59
2022-08-17T17:35:53.584Z,45.27
2022-08-17T17:38:49.674Z,46.87
2022-08-17T17:41:28.976Z,47.88
2022-08-17T17:44:07.860Z,46.55
2022-08-17T17:46:43.299Z,47.62
2022-08-17T17:49:14.290Z,47.93
2022-08-17T17:52:09.235Z,48.85
2022-08-17T17:54:57.427Z,48.82
2022-08-17T17:57:49.392Z,49.71
2022-08-17T18:00:24.284Z,50.97
2022-08-17T18:03:20.627Z,51.23
2022-08-17T18:06:24.771Z,51.69
2022-08-17T18:09:11.349Z,53.06
2022-08-17T18:12:16.660Z,53.71
2022-08-17T18:15:03.507Z,55.09
2022-08-17T18:17:31.203Z,56.59
2022-08-17T18:19:58.020Z,57.07
2022-08-17T18:22:27.728Z,57.48
2022-08-17T18:24:57.235Z,58.22
2022-08-17T18:27:38.104Z,58.37
2022-08-17T18:30:29.871Z,58.21
2022-08-17T18:33:26.288Z,58.68
2022-08-17T18:35:58.828Z,58.65
2022-08-17T18:38:41.398Z,58.17
2022-08-17T18:41:30.265Z,58.15
2022-08-17T18:44:06.093Z,58.27
2022-08-17T18:46:37.766Z,58.32
2022-08-17T18:49:29.304Z,58.94
2022-08-17T18:52:32.494Z,59.46
2022-08-17T18:55:20.112Z,59.73
2022-08-17T18:57:52.319Z,59.94
2022-08-17T19:00:40.500Z,60.07
2022-08-17T19:03:16.284Z,60.39
2022-08-17T19:06:15.403Z,59.88
2022-08-17T19:08:42.449Z,59.72
2022-08-17T19:11:34.021Z,59.55
2022-08-17T19:14:09.248Z,59.70
2022-08-17T19:17:02.296Z,59.39
2022-08-17T19:20:12.907Z,59.23
2022-08-17T19:23:08.002Z,59.42
2022-08-17T19:25:45.248Z,60.13
2022-08-17T19:28:25.716Z,59.55
2022-08-17T19:31:04.089Z,59.08
2022-08-17T19:33:31.583Z,59.12
2022-08-17T19:36:31.123Z,59.26
2022-08-17T19:39:26.794Z,59.75
2022-08-17T19:42:50.647Z,59.64
2022-08-17T19:45:39.508Z,59.92
2022-08-17T19:48:56.408Z,60.01
2022-08-17T19:51:34.090Z,60.08
2022-08-17T19:54:20.595Z,59.84
2022-08-17T19:57:06.787Z,60.78
2022-08-17T20:00:01.911Z,60.61
2022-08-17T20:03:05.877Z,60.74
2022-08-17T20:06:10.969Z,60.47
2022-08-17T20:08:48.735Z,60.71
2022-08-17T20:11:27.290Z,61.20
2022-08-17T20:14:33.801Z,61.58
2022-08-17T20:17:03.065Z,61.33
2022-08-17T20:19:55.525Z,61.22
2022-08-17T20:22:52.035Z,61.84
2022-08-17T20:25:43.532Z,62.06
2022-08-17T20:28:25.823Z,63.17
2022-08-17T20:30:52.905Z,62.96
2022-08-17T20:33:35.219Z,62.05
2022-08-17T20:36:22.762Z,61.43
2022-08-17T20:38:58.961Z,60.62
2022-08-17T20:41:30.461Z,61.09
2022-08-17T20:43:57.106Z,60.17
2022-08-17T20:46:36.429Z,60.21
2022-08-17T20:52:01.023Z,60.53
2022-08-17T20:54:49.570Z,61.21
2022-08-17T20:57:31.846Z,60.77
2022-08-17T21:00:18.150Z,61.74
2022-08-17T21:02:52.047Z,61.19
2022-08-17T21:05:34.254Z,61.11
2022-08-17T21:08:16.883Z,61.50
2022-08-17T21:10:47.107Z,61.87
2022-08-17T21:13:15.493Z,61.62
2022-08-17T21:15:59.055Z,62.22
2022-08-17T21:18:51.740Z,61.02
2022-08-17T21:21:41.695Z,61.62
2022-08-17T21:24:31.576Z,62.10
2022-08-17T21:27:18.129Z,62.73
2022-08-17T21:30:24.588Z,62.78
2022-08-17T21:33:18.477Z,62.32
2022-08-17T21:36:00.508Z,61.85
2022-08-17T21:38:41.681Z,62.32
2022-08-17T21:41:27.246Z,62.79
2022-08-17T21:44:06.214Z,62.87
2022-08-17T21:46:39.645Z,62.90
2022-08-17T21:49:13.843Z,63.27
2022-08-17T21:51:51.232Z,62.25
2022-08-17T21:54:34.660Z,62.87
2022-08-17T21:57:07.981Z,62.88
2022-08-17T21:59:39.985Z,63.21
2022-08-17T22:02:18.839Z,63.41
2022-08-17T22:05:16.648Z,63.12
2022-08-17T22:07:48.563Z,63.28
2022-08-17T22:10:38.931Z,63.18
2022-08-17T22:13:17.616Z,63.04
2022-08-17T22:15:50.258Z,63.35
2022-08-17T22:18:28.875Z,63.64
2022-08-17T22:21:01.743Z,63.54
2022-08-17T22:23:55.332Z,63.65
2022-08-17T22:26:27.704Z,63.65
2022-08-17T22:28:58.942Z,63.18
2022-08-17T22:31:29.687Z,63.33
2022-08-17T22:34:02.272Z,62.95
2022-08-17T22:36:35.056Z,63.01
2022-08-17T22:39:10.467Z,64.83
2022-08-17T22:41:51.062Z,63.89
2022-08-17T22:44:30.228Z,63.94
2022-08-17T22:47:13.952Z,64.02
2022-08-17T22:50:00.166Z,64.31
2022-08-17T22:52:35.252Z,64.43
2022-08-17T22:55:38.708Z,64.33
2022-08-17T22:58:35.209Z,63.99
2022-08-17T23:01:25.936Z,64.26
2022-08-17T23:04:01.279Z,64.00
2022-08-17T23:06:29.744Z,64.05
2022-08-17T23:08:57.767Z,63.91
2022-08-17T23:11:36.923Z,63.97
2022-08-17T23:14:16.691Z,64.32
2022-08-17T23:16:43.557Z,64.76
2022-08-17T23:19:18.937Z,64.84
2022-08-17T23:21:46.493Z,64.77
2022-08-17T23:24:25.973Z,64.74
2022-08-17T23:26:57.184Z,64.83
2022-08-17T23:29:29.179Z,65.49
2022-08-17T23:31:59.904Z,65.11
2022-08-17T23:34:28.566Z,65.12
2022-08-17T23:36:56.042Z,65.54
2022-08-17T23:39:27.725Z,65.58
2022-08-17T23:41:58.526Z,65.64
2022-08-17T23:44:27.027Z,66.03
2022-08-17T23:46:54.646Z,65.62
2022-08-17T23:49:21.623Z,66.10
2022-08-17T23:51:49.456Z,66.36
2022-08-17T23:54:26.858Z,66.31
2022-08-17T23:56:53.910Z,65.95
2022-08-17T23:59:23.326Z,66.34
